sensor_id;sensor_type;location;lat;lon;timestamp;P1;durP1;ratioP1;P2;durP2;ratioP2
37851;SDS011;23691;52.486;4.650;2023-04-30T00:00:33;21.25;;;11.07;;
37851;SDS011;23691;52.486;4.650;2023-04-30T00:02:59;23.92;;;10.68;;
37851;SDS011;23691;52.486;4.650;2023-04-30T00:05:25;26.85;;;11.77;;
37851;SDS011;23691;52.486;4.650;2023-04-30T00:07:50;23.77;;;11.82;;
37851;SDS011;23691;52.486;4.650;2023-04-30T00:10:16;21.83;;;11.13;;
37851;SDS011;23691;52.486;4.650;2023-04-30T00:12:41;21.58;;;11.18;;
37851;SDS011;23691;52.486;4.650;2023-04-30T00:15:07;23.13;;;11.55;;
37851;SDS011;23691;52.486;4.650;2023-04-30T00:17:33;20.88;;;11.40;;
37851;SDS011;23691;52.486;4.650;2023-04-30T00:19:58;26.25;;;11.55;;
37851;SDS011;23691;52.486;4.650;2023-04-30T00:22:23;20.33;;;11.07;;
37851;SDS011;23691;52.486;4.650;2023-04-30T00:24:49;23.83;;;11.93;;
37851;SDS011;23691;52.486;4.650;2023-04-30T00:27:14;20.35;;;10.65;;
37851;SDS011;23691;52.486;4.650;2023-04-30T00:29:39;23.13;;;10.88;;
37851;SDS011;23691;52.486;4.650;2023-04-30T00:32:05;22.45;;;10.70;;
37851;SDS011;23691;52.486;4.650;2023-04-30T00:34:30;23.38;;;10.68;;
37851;SDS011;23691;52.486;4.650;2023-04-30T00:36:56;23.15;;;10.65;;
37851;SDS011;23691;52.486;4.650;2023-04-30T00:39:21;21.50;;;10.45;;
37851;SDS011;23691;52.486;4.650;2023-04-30T00:41:46;22.40;;;10.73;;
37851;SDS011;23691;52.486;4.650;2023-04-30T00:44:12;22.05;;;10.07;;
37851;SDS011;23691;52.486;4.650;2023-04-30T00:46:37;24.58;;;10.43;;
37851;SDS011;23691;52.486;4.650;2023-04-30T00:49:02;20.55;;;10.02;;
37851;SDS011;23691;52.486;4.650;2023-04-30T00:51:30;22.05;;;11.10;;
37851;SDS011;23691;52.486;4.650;2023-04-30T00:53:57;16.05;;;9.07;;
37851;SDS011;23691;52.486;4.650;2023-04-30T00:58:53;18.92;;;9.65;;
37851;SDS011;23691;52.486;4.650;2023-04-30T01:01:22;20.23;;;10.10;;
37851;SDS011;23691;52.486;4.650;2023-04-30T01:03:52;19.58;;;10.02;;
37851;SDS011;23691;52.486;4.650;2023-04-30T01:06:18;23.13;;;9.75;;
37851;SDS011;23691;52.486;4.650;2023-04-30T01:08:43;21.52;;;10.57;;
37851;SDS011;23691;52.486;4.650;2023-04-30T01:11:20;22.30;;;10.15;;
37851;SDS011;23691;52.486;4.650;2023-04-30T01:17:01;23.47;;;10.93;;
37851;SDS011;23691;52.486;4.650;2023-04-30T01:19:45;20.27;;;10.50;;
37851;SDS011;23691;52.486;4.650;2023-04-30T01:22:34;21.65;;;10.00;;
37851;SDS011;23691;52.486;4.650;2023-04-30T01:25:13;21.67;;;10.63;;
37851;SDS011;23691;52.486;4.650;2023-04-30T01:28:06;19.83;;;10.98;;
37851;SDS011;23691;52.486;4.650;2023-04-30T01:30:34;19.52;;;10.80;;
37851;SDS011;23691;52.486;4.650;2023-04-30T01:33:00;21.23;;;10.75;;
37851;SDS011;23691;52.486;4.650;2023-04-30T01:35:35;25.23;;;11.00;;
37851;SDS011;23691;52.486;4.650;2023-04-30T01:50:14;20.88;;;10.35;;
37851;SDS011;23691;52.486;4.650;2023-04-30T01:52:58;19.15;;;10.02;;
37851;SDS011;23691;52.486;4.650;2023-04-30T01:55:35;18.88;;;10.07;;
37851;SDS011;23691;52.486;4.650;2023-04-30T01:58:06;20.58;;;9.80;;
37851;SDS011;23691;52.486;4.650;2023-04-30T02:00:44;20.83;;;9.38;;
37851;SDS011;23691;52.486;4.650;2023-04-30T02:03:10;18.33;;;9.80;;
37851;SDS011;23691;52.486;4.650;2023-04-30T02:05:35;18.92;;;9.82;;
37851;SDS011;23691;52.486;4.650;2023-04-30T02:08:01;21.02;;;10.10;;
37851;SDS011;23691;52.486;4.650;2023-04-30T02:10:27;20.35;;;10.05;;
37851;SDS011;23691;52.486;4.650;2023-04-30T02:12:54;20.00;;;9.95;;
37851;SDS011;23691;52.486;4.650;2023-04-30T02:15:20;17.52;;;9.50;;
37851;SDS011;23691;52.486;4.650;2023-04-30T02:17:45;18.20;;;9.48;;
37851;SDS011;23691;52.486;4.650;2023-04-30T02:20:10;18.17;;;9.77;;
37851;SDS011;23691;52.486;4.650;2023-04-30T02:22:36;19.17;;;9.93;;
37851;SDS011;23691;52.486;4.650;2023-04-30T02:25:01;18.88;;;10.13;;
37851;SDS011;23691;52.486;4.650;2023-04-30T02:27:28;19.27;;;10.10;;
37851;SDS011;23691;52.486;4.650;2023-04-30T02:29:55;17.15;;;9.15;;
37851;SDS011;23691;52.486;4.650;2023-04-30T02:32:21;22.90;;;10.05;;
37851;SDS011;23691;52.486;4.650;2023-04-30T02:34:46;18.60;;;10.23;;
37851;SDS011;23691;52.486;4.650;2023-04-30T02:37:11;19.58;;;10.07;;
37851;SDS011;23691;52.486;4.650;2023-04-30T02:39:37;20.10;;;9.80;;
37851;SDS011;23691;52.486;4.650;2023-04-30T02:42:02;18.55;;;9.10;;
37851;SDS011;23691;52.486;4.650;2023-04-30T02:44:28;18.30;;;9.68;;
37851;SDS011;23691;52.486;4.650;2023-04-30T02:46:54;17.15;;;9.45;;
37851;SDS011;23691;52.486;4.650;2023-04-30T02:49:19;19.33;;;9.95;;
37851;SDS011;23691;52.486;4.650;2023-04-30T02:51:44;19.15;;;10.13;;
37851;SDS011;23691;52.486;4.650;2023-04-30T02:54:10;18.85;;;9.70;;
37851;SDS011;23691;52.486;4.650;2023-04-30T02:56:35;20.20;;;9.65;;
37851;SDS011;23691;52.486;4.650;2023-04-30T02:59:02;18.55;;;9.48;;
37851;SDS011;23691;52.486;4.650;2023-04-30T03:01:28;20.30;;;10.00;;
37851;SDS011;23691;52.486;4.650;2023-04-30T03:03:53;18.90;;;9.27;;
37851;SDS011;23691;52.486;4.650;2023-04-30T03:06:18;16.85;;;9.70;;
37851;SDS011;23691;52.486;4.650;2023-04-30T03:08:44;18.13;;;9.25;;
37851;SDS011;23691;52.486;4.650;2023-04-30T03:11:09;17.75;;;9.25;;
37851;SDS011;23691;52.486;4.650;2023-04-30T03:13:35;18.48;;;9.65;;
37851;SDS011;23691;52.486;4.650;2023-04-30T03:16:01;18.90;;;9.75;;
37851;SDS011;23691;52.486;4.650;2023-04-30T03:18:30;18.35;;;10.00;;
37851;SDS011;23691;52.486;4.650;2023-04-30T03:20:56;18.58;;;9.70;;
37851;SDS011;23691;52.486;4.650;2023-04-30T03:23:22;19.88;;;9.68;;
37851;SDS011;23691;52.486;4.650;2023-04-30T03:25:48;18.23;;;10.00;;
37851;SDS011;23691;52.486;4.650;2023-04-30T03:28:16;18.02;;;9.60;;
37851;SDS011;23691;52.486;4.650;2023-04-30T03:30:41;18.55;;;9.82;;
37851;SDS011;23691;52.486;4.650;2023-04-30T03:33:07;18.70;;;10.27;;
37851;SDS011;23691;52.486;4.650;2023-04-30T03:35:32;17.08;;;9.75;;
37851;SDS011;23691;52.486;4.650;2023-04-30T03:37:58;16.30;;;9.98;;
37851;SDS011;23691;52.486;4.650;2023-04-30T03:40:24;18.83;;;10.23;;
37851;SDS011;23691;52.486;4.650;2023-04-30T03:42:50;18.38;;;9.90;;
37851;SDS011;23691;52.486;4.650;2023-04-30T03:45:15;19.60;;;10.35;;
37851;SDS011;23691;52.486;4.650;2023-04-30T03:47:41;20.30;;;10.95;;
37851;SDS011;23691;52.486;4.650;2023-04-30T03:50:07;18.45;;;10.55;;
37851;SDS011;23691;52.486;4.650;2023-04-30T03:52:33;21.33;;;11.05;;
37851;SDS011;23691;52.486;4.650;2023-04-30T03:54:58;20.67;;;11.00;;
37851;SDS011;23691;52.486;4.650;2023-04-30T03:57:24;18.88;;;10.77;;
37851;SDS011;23691;52.486;4.650;2023-04-30T03:59:49;22.88;;;11.73;;
37851;SDS011;23691;52.486;4.650;2023-04-30T04:02:15;20.90;;;11.27;;
37851;SDS011;23691;52.486;4.650;2023-04-30T04:04:41;20.02;;;11.40;;
37851;SDS011;23691;52.486;4.650;2023-04-30T04:07:06;21.35;;;10.95;;
37851;SDS011;23691;52.486;4.650;2023-04-30T04:09:33;18.80;;;10.77;;
37851;SDS011;23691;52.486;4.650;2023-04-30T04:11:59;21.45;;;12.10;;
37851;SDS011;23691;52.486;4.650;2023-04-30T04:14:25;18.65;;;10.75;;
37851;SDS011;23691;52.486;4.650;2023-04-30T04:16:53;22.63;;;11.30;;
37851;SDS011;23691;52.486;4.650;2023-04-30T04:19:18;21.83;;;12.10;;
37851;SDS011;23691;52.486;4.650;2023-04-30T04:21:44;18.38;;;11.68;;
37851;SDS011;23691;52.486;4.650;2023-04-30T04:24:09;20.92;;;11.23;;
37851;SDS011;23691;52.486;4.650;2023-04-30T04:26:35;20.98;;;11.75;;
37851;SDS011;23691;52.486;4.650;2023-04-30T04:29:01;23.35;;;11.77;;
37851;SDS011;23691;52.486;4.650;2023-04-30T04:31:27;19.83;;;11.43;;
37851;SDS011;23691;52.486;4.650;2023-04-30T04:33:53;20.13;;;11.70;;
37851;SDS011;23691;52.486;4.650;2023-04-30T04:36:23;19.10;;;11.35;;
37851;SDS011;23691;52.486;4.650;2023-04-30T04:38:49;23.98;;;11.52;;
37851;SDS011;23691;52.486;4.650;2023-04-30T04:41:14;22.27;;;11.55;;
37851;SDS011;23691;52.486;4.650;2023-04-30T04:43:40;19.63;;;11.75;;
37851;SDS011;23691;52.486;4.650;2023-04-30T04:46:06;20.30;;;11.90;;
37851;SDS011;23691;52.486;4.650;2023-04-30T04:48:33;20.75;;;12.38;;
37851;SDS011;23691;52.486;4.650;2023-04-30T04:50:58;19.63;;;11.43;;
37851;SDS011;23691;52.486;4.650;2023-04-30T04:53:23;21.05;;;12.25;;
37851;SDS011;23691;52.486;4.650;2023-04-30T04:55:49;21.77;;;11.95;;
37851;SDS011;23691;52.486;4.650;2023-04-30T04:58:23;18.98;;;11.75;;
37851;SDS011;23691;52.486;4.650;2023-04-30T05:00:48;19.40;;;11.75;;
37851;SDS011;23691;52.486;4.650;2023-04-30T05:03:16;20.58;;;12.35;;
37851;SDS011;23691;52.486;4.650;2023-04-30T05:05:42;21.30;;;12.23;;
37851;SDS011;23691;52.486;4.650;2023-04-30T05:08:07;21.77;;;13.18;;
37851;SDS011;23691;52.486;4.650;2023-04-30T05:10:32;20.25;;;12.13;;
37851;SDS011;23691;52.486;4.650;2023-04-30T05:12:59;22.08;;;13.38;;
37851;SDS011;23691;52.486;4.650;2023-04-30T05:15:24;22.42;;;13.55;;
37851;SDS011;23691;52.486;4.650;2023-04-30T05:17:49;22.42;;;13.25;;
37851;SDS011;23691;52.486;4.650;2023-04-30T05:20:15;23.35;;;14.23;;
37851;SDS011;23691;52.486;4.650;2023-04-30T05:22:40;22.10;;;13.70;;
37851;SDS011;23691;52.486;4.650;2023-04-30T05:25:06;22.50;;;13.82;;
37851;SDS011;23691;52.486;4.650;2023-04-30T05:27:31;22.88;;;14.63;;
37851;SDS011;23691;52.486;4.650;2023-04-30T05:29:57;23.73;;;14.65;;
37851;SDS011;23691;52.486;4.650;2023-04-30T05:32:22;25.55;;;14.27;;
37851;SDS011;23691;52.486;4.650;2023-04-30T05:34:48;24.42;;;14.10;;
37851;SDS011;23691;52.486;4.650;2023-04-30T05:37:14;25.35;;;13.85;;
37851;SDS011;23691;52.486;4.650;2023-04-30T05:39:41;22.23;;;13.05;;
37851;SDS011;23691;52.486;4.650;2023-04-30T05:42:07;22.73;;;12.38;;
37851;SDS011;23691;52.486;4.650;2023-04-30T05:44:32;19.73;;;11.63;;
37851;SDS011;23691;52.486;4.650;2023-04-30T05:46:57;22.88;;;12.10;;
37851;SDS011;23691;52.486;4.650;2023-04-30T05:49:23;20.77;;;12.38;;
37851;SDS011;23691;52.486;4.650;2023-04-30T05:51:48;21.52;;;12.68;;
37851;SDS011;23691;52.486;4.650;2023-04-30T05:54:13;18.63;;;12.68;;
37851;SDS011;23691;52.486;4.650;2023-04-30T05:56:39;18.95;;;11.93;;
37851;SDS011;23691;52.486;4.650;2023-04-30T05:59:04;24.38;;;12.38;;
37851;SDS011;23691;52.486;4.650;2023-04-30T06:01:29;19.95;;;12.35;;
37851;SDS011;23691;52.486;4.650;2023-04-30T06:03:55;21.83;;;13.30;;
37851;SDS011;23691;52.486;4.650;2023-04-30T06:06:20;20.35;;;12.68;;
37851;SDS011;23691;52.486;4.650;2023-04-30T06:08:46;20.80;;;13.05;;
37851;SDS011;23691;52.486;4.650;2023-04-30T06:11:11;21.55;;;13.60;;
37851;SDS011;23691;52.486;4.650;2023-04-30T06:13:37;22.67;;;13.63;;
37851;SDS011;23691;52.486;4.650;2023-04-30T06:16:03;19.27;;;12.13;;
37851;SDS011;23691;52.486;4.650;2023-04-30T06:18:29;20.75;;;12.65;;
37851;SDS011;23691;52.486;4.650;2023-04-30T06:20:55;19.23;;;11.48;;
37851;SDS011;23691;52.486;4.650;2023-04-30T06:23:20;19.17;;;11.40;;
37851;SDS011;23691;52.486;4.650;2023-04-30T06:25:45;18.48;;;10.05;;
37851;SDS011;23691;52.486;4.650;2023-04-30T06:28:11;19.45;;;10.23;;
37851;SDS011;23691;52.486;4.650;2023-04-30T06:30:36;20.02;;;10.40;;
37851;SDS011;23691;52.486;4.650;2023-04-30T06:33:01;18.55;;;10.13;;
37851;SDS011;23691;52.486;4.650;2023-04-30T06:35:27;18.27;;;10.30;;
37851;SDS011;23691;52.486;4.650;2023-04-30T06:37:52;17.02;;;9.50;;
37851;SDS011;23691;52.486;4.650;2023-04-30T06:40:20;17.70;;;9.77;;
37851;SDS011;23691;52.486;4.650;2023-04-30T06:42:45;17.30;;;9.50;;
37851;SDS011;23691;52.486;4.650;2023-04-30T06:45:11;18.77;;;9.52;;
37851;SDS011;23691;52.486;4.650;2023-04-30T06:47:39;17.13;;;8.82;;
37851;SDS011;23691;52.486;4.650;2023-04-30T06:50:06;15.80;;;8.80;;
37851;SDS011;23691;52.486;4.650;2023-04-30T06:52:32;17.65;;;9.10;;
37851;SDS011;23691;52.486;4.650;2023-04-30T06:54:57;15.55;;;8.25;;
37851;SDS011;23691;52.486;4.650;2023-04-30T06:57:23;16.63;;;8.75;;
37851;SDS011;23691;52.486;4.650;2023-04-30T06:59:49;16.45;;;8.15;;
37851;SDS011;23691;52.486;4.650;2023-04-30T07:02:15;16.35;;;8.32;;
37851;SDS011;23691;52.486;4.650;2023-04-30T07:04:40;18.55;;;8.70;;
37851;SDS011;23691;52.486;4.650;2023-04-30T07:07:05;16.67;;;8.90;;
37851;SDS011;23691;52.486;4.650;2023-04-30T07:09:31;15.95;;;8.57;;
37851;SDS011;23691;52.486;4.650;2023-04-30T07:11:56;16.83;;;7.88;;
37851;SDS011;23691;52.486;4.650;2023-04-30T07:14:22;14.25;;;7.43;;
37851;SDS011;23691;52.486;4.650;2023-04-30T07:16:51;16.50;;;7.88;;
37851;SDS011;23691;52.486;4.650;2023-04-30T07:19:17;14.07;;;7.50;;
37851;SDS011;23691;52.486;4.650;2023-04-30T07:21:42;15.25;;;7.38;;
37851;SDS011;23691;52.486;4.650;2023-04-30T07:24:08;14.50;;;7.53;;
37851;SDS011;23691;52.486;4.650;2023-04-30T07:26:34;16.38;;;6.93;;
37851;SDS011;23691;52.486;4.650;2023-04-30T07:29:00;14.13;;;7.40;;
37851;SDS011;23691;52.486;4.650;2023-04-30T07:31:26;13.73;;;6.82;;
37851;SDS011;23691;52.486;4.650;2023-04-30T07:33:51;14.68;;;7.20;;
37851;SDS011;23691;52.486;4.650;2023-04-30T07:36:17;13.18;;;7.43;;
37851;SDS011;23691;52.486;4.650;2023-04-30T07:38:42;14.77;;;7.00;;
37851;SDS011;23691;52.486;4.650;2023-04-30T07:41:07;12.85;;;6.70;;
37851;SDS011;23691;52.486;4.650;2023-04-30T07:43:33;15.95;;;6.60;;
37851;SDS011;23691;52.486;4.650;2023-04-30T07:45:59;12.95;;;6.50;;
37851;SDS011;23691;52.486;4.650;2023-04-30T07:48:25;14.52;;;6.32;;
37851;SDS011;23691;52.486;4.650;2023-04-30T07:50:51;12.82;;;5.88;;
37851;SDS011;23691;52.486;4.650;2023-04-30T07:53:16;11.13;;;5.68;;
37851;SDS011;23691;52.486;4.650;2023-04-30T07:55:41;11.98;;;5.72;;
37851;SDS011;23691;52.486;4.650;2023-04-30T07:58:07;13.52;;;5.50;;
37851;SDS011;23691;52.486;4.650;2023-04-30T08:00:32;10.85;;;5.22;;
37851;SDS011;23691;52.486;4.650;2023-04-30T08:02:58;13.38;;;5.15;;
37851;SDS011;23691;52.486;4.650;2023-04-30T08:05:24;12.95;;;4.90;;
37851;SDS011;23691;52.486;4.650;2023-04-30T08:07:50;9.40;;;4.70;;
37851;SDS011;23691;52.486;4.650;2023-04-30T08:10:16;11.02;;;4.80;;
37851;SDS011;23691;52.486;4.650;2023-04-30T08:12:41;9.77;;;4.30;;
37851;SDS011;23691;52.486;4.650;2023-04-30T08:15:07;9.73;;;4.15;;
37851;SDS011;23691;52.486;4.650;2023-04-30T08:17:32;10.80;;;4.30;;
37851;SDS011;23691;52.486;4.650;2023-04-30T08:19:59;9.25;;;4.07;;
37851;SDS011;23691;52.486;4.650;2023-04-30T08:22:25;10.50;;;4.50;;
37851;SDS011;23691;52.486;4.650;2023-04-30T08:24:50;10.45;;;4.70;;
37851;SDS011;23691;52.486;4.650;2023-04-30T08:27:16;10.70;;;4.50;;
37851;SDS011;23691;52.486;4.650;2023-04-30T08:29:41;9.25;;;4.18;;
37851;SDS011;23691;52.486;4.650;2023-04-30T08:32:07;10.15;;;4.30;;
37851;SDS011;23691;52.486;4.650;2023-04-30T08:34:33;10.88;;;4.35;;
37851;SDS011;23691;52.486;4.650;2023-04-30T08:36:58;10.10;;;4.38;;
37851;SDS011;23691;52.486;4.650;2023-04-30T08:39:24;8.77;;;3.72;;
37851;SDS011;23691;52.486;4.650;2023-04-30T08:41:52;10.45;;;4.13;;
37851;SDS011;23691;52.486;4.650;2023-04-30T08:44:20;10.32;;;3.97;;
37851;SDS011;23691;52.486;4.650;2023-04-30T08:46:52;9.25;;;3.90;;
37851;SDS011;23691;52.486;4.650;2023-04-30T08:49:22;8.77;;;3.88;;
37851;SDS011;23691;52.486;4.650;2023-04-30T08:51:49;9.60;;;3.83;;
37851;SDS011;23691;52.486;4.650;2023-04-30T08:54:15;10.00;;;4.10;;
37851;SDS011;23691;52.486;4.650;2023-04-30T08:56:42;10.20;;;3.60;;
37851;SDS011;23691;52.486;4.650;2023-04-30T08:59:08;10.73;;;4.20;;
37851;SDS011;23691;52.486;4.650;2023-04-30T09:01:37;11.52;;;3.60;;
37851;SDS011;23691;52.486;4.650;2023-04-30T09:04:03;9.57;;;3.60;;
37851;SDS011;23691;52.486;4.650;2023-04-30T09:06:31;11.30;;;3.80;;
37851;SDS011;23691;52.486;4.650;2023-04-30T09:08:57;8.50;;;3.28;;
37851;SDS011;23691;52.486;4.650;2023-04-30T09:11:33;8.40;;;3.50;;
37851;SDS011;23691;52.486;4.650;2023-04-30T09:13:59;9.07;;;3.30;;
37851;SDS011;23691;52.486;4.650;2023-04-30T09:16:26;8.13;;;3.13;;
37851;SDS011;23691;52.486;4.650;2023-04-30T09:19:29;8.93;;;3.00;;
37851;SDS011;23691;52.486;4.650;2023-04-30T09:21:54;7.00;;;3.15;;
37851;SDS011;23691;52.486;4.650;2023-04-30T09:24:20;9.10;;;2.80;;
37851;SDS011;23691;52.486;4.650;2023-04-30T09:26:47;8.20;;;3.00;;
37851;SDS011;23691;52.486;4.650;2023-04-30T09:29:13;10.40;;;3.10;;
37851;SDS011;23691;52.486;4.650;2023-04-30T09:31:41;7.68;;;2.80;;
37851;SDS011;23691;52.486;4.650;2023-04-30T09:34:08;7.15;;;2.90;;
37851;SDS011;23691;52.486;4.650;2023-04-30T09:36:34;9.57;;;4.00;;
37851;SDS011;23691;52.486;4.650;2023-04-30T09:39:06;11.15;;;4.40;;
37851;SDS011;23691;52.486;4.650;2023-04-30T09:41:33;10.43;;;3.42;;
37851;SDS011;23691;52.486;4.650;2023-04-30T09:44:01;12.20;;;4.72;;
37851;SDS011;23691;52.486;4.650;2023-04-30T09:46:30;8.73;;;3.65;;
37851;SDS011;23691;52.486;4.650;2023-04-30T09:48:58;7.93;;;3.03;;
37851;SDS011;23691;52.486;4.650;2023-04-30T09:51:25;12.95;;;4.72;;
37851;SDS011;23691;52.486;4.650;2023-04-30T09:53:51;11.48;;;5.07;;
37851;SDS011;23691;52.486;4.650;2023-04-30T09:56:21;11.15;;;4.20;;
37851;SDS011;23691;52.486;4.650;2023-04-30T09:58:49;11.40;;;5.05;;
37851;SDS011;23691;52.486;4.650;2023-04-30T10:01:21;7.00;;;3.00;;
37851;SDS011;23691;52.486;4.650;2023-04-30T10:03:53;8.50;;;3.13;;
37851;SDS011;23691;52.486;4.650;2023-04-30T10:06:20;9.02;;;2.83;;
37851;SDS011;23691;52.486;4.650;2023-04-30T10:08:52;10.13;;;3.85;;
37851;SDS011;23691;52.486;4.650;2023-04-30T10:11:22;7.90;;;3.10;;
37851;SDS011;23691;52.486;4.650;2023-04-30T10:13:53;7.90;;;2.90;;
37851;SDS011;23691;52.486;4.650;2023-04-30T10:19:14;8.52;;;3.22;;
37851;SDS011;23691;52.486;4.650;2023-04-30T10:21:44;8.80;;;3.20;;
37851;SDS011;23691;52.486;4.650;2023-04-30T10:24:14;9.02;;;2.90;;
37851;SDS011;23691;52.486;4.650;2023-04-30T10:26:43;9.32;;;2.75;;
37851;SDS011;23691;52.486;4.650;2023-04-30T10:29:13;9.05;;;2.58;;
37851;SDS011;23691;52.486;4.650;2023-04-30T10:31:46;7.65;;;2.78;;
37851;SDS011;23691;52.486;4.650;2023-04-30T10:37:04;9.03;;;3.00;;
37851;SDS011;23691;52.486;4.650;2023-04-30T10:39:35;7.53;;;2.63;;
37851;SDS011;23691;52.486;4.650;2023-04-30T10:42:02;7.38;;;2.60;;
37851;SDS011;23691;52.486;4.650;2023-04-30T10:44:32;13.05;;;2.90;;
37851;SDS011;23691;52.486;4.650;2023-04-30T10:47:00;7.97;;;2.60;;
37851;SDS011;23691;52.486;4.650;2023-04-30T10:49:27;9.25;;;2.90;;
37851;SDS011;23691;52.486;4.650;2023-04-30T10:51:54;9.70;;;2.75;;
37851;SDS011;23691;52.486;4.650;2023-04-30T10:54:32;9.70;;;2.63;;
37851;SDS011;23691;52.486;4.650;2023-04-30T10:57:12;10.27;;;2.80;;
37851;SDS011;23691;52.486;4.650;2023-04-30T10:59:43;11.25;;;3.35;;
37851;SDS011;23691;52.486;4.650;2023-04-30T11:02:11;9.30;;;2.85;;
37851;SDS011;23691;52.486;4.650;2023-04-30T11:07:33;9.40;;;2.88;;
37851;SDS011;23691;52.486;4.650;2023-04-30T11:09:59;6.95;;;2.40;;
37851;SDS011;23691;52.486;4.650;2023-04-30T11:12:25;7.10;;;2.53;;
37851;SDS011;23691;52.486;4.650;2023-04-30T11:14:54;12.18;;;2.78;;
37851;SDS011;23691;52.486;4.650;2023-04-30T11:17:25;6.85;;;2.33;;
37851;SDS011;23691;52.486;4.650;2023-04-30T11:19:52;8.67;;;2.87;;
37851;SDS011;23691;52.486;4.650;2023-04-30T11:22:22;8.45;;;2.70;;
37851;SDS011;23691;52.486;4.650;2023-04-30T11:24:52;7.60;;;2.80;;
37851;SDS011;23691;52.486;4.650;2023-04-30T11:27:24;8.75;;;2.30;;
37851;SDS011;23691;52.486;4.650;2023-04-30T11:29:51;8.10;;;2.80;;
37851;SDS011;23691;52.486;4.650;2023-04-30T11:32:18;11.38;;;2.67;;
37851;SDS011;23691;52.486;4.650;2023-04-30T11:34:44;11.20;;;2.70;;
37851;SDS011;23691;52.486;4.650;2023-04-30T11:37:11;11.35;;;3.10;;
37851;SDS011;23691;52.486;4.650;2023-04-30T11:39:40;11.32;;;2.78;;
37851;SDS011;23691;52.486;4.650;2023-04-30T11:42:07;7.95;;;2.50;;
37851;SDS011;23691;52.486;4.650;2023-04-30T11:44:32;9.20;;;2.75;;
37851;SDS011;23691;52.486;4.650;2023-04-30T11:46:58;8.10;;;2.53;;
37851;SDS011;23691;52.486;4.650;2023-04-30T11:49:25;11.20;;;2.67;;
37851;SDS011;23691;52.486;4.650;2023-04-30T11:51:50;7.18;;;2.45;;
37851;SDS011;23691;52.486;4.650;2023-04-30T11:54:17;15.73;;;2.92;;
37851;SDS011;23691;52.486;4.650;2023-04-30T11:56:46;7.55;;;2.67;;
37851;SDS011;23691;52.486;4.650;2023-04-30T11:59:15;7.38;;;2.25;;
37851;SDS011;23691;52.486;4.650;2023-04-30T12:01:41;10.85;;;2.35;;
37851;SDS011;23691;52.486;4.650;2023-04-30T12:04:07;9.05;;;2.38;;
37851;SDS011;23691;52.486;4.650;2023-04-30T12:06:33;9.43;;;2.20;;
37851;SDS011;23691;52.486;4.650;2023-04-30T12:08:59;10.77;;;2.45;;
37851;SDS011;23691;52.486;4.650;2023-04-30T12:11:28;19.20;;;2.30;;
37851;SDS011;23691;52.486;4.650;2023-04-30T12:13:56;6.27;;;1.90;;
37851;SDS011;23691;52.486;4.650;2023-04-30T12:16:27;8.75;;;2.13;;
37851;SDS011;23691;52.486;4.650;2023-04-30T12:18:52;7.57;;;1.95;;
37851;SDS011;23691;52.486;4.650;2023-04-30T12:23:46;8.70;;;2.08;;
37851;SDS011;23691;52.486;4.650;2023-04-30T12:26:12;6.68;;;1.88;;
37851;SDS011;23691;52.486;4.650;2023-04-30T12:28:37;7.15;;;1.90;;
37851;SDS011;23691;52.486;4.650;2023-04-30T12:31:06;9.32;;;2.03;;
37851;SDS011;23691;52.486;4.650;2023-04-30T12:33:32;5.78;;;1.80;;
37851;SDS011;23691;52.486;4.650;2023-04-30T12:35:57;6.80;;;1.80;;
37851;SDS011;23691;52.486;4.650;2023-04-30T12:38:23;7.53;;;2.28;;
37851;SDS011;23691;52.486;4.650;2023-04-30T12:40:49;8.50;;;2.20;;
37851;SDS011;23691;52.486;4.650;2023-04-30T12:43:15;6.10;;;1.85;;
37851;SDS011;23691;52.486;4.650;2023-04-30T12:45:48;8.73;;;2.20;;
37851;SDS011;23691;52.486;4.650;2023-04-30T12:48:18;8.00;;;2.10;;
37851;SDS011;23691;52.486;4.650;2023-04-30T12:53:22;6.65;;;1.70;;
37851;SDS011;23691;52.486;4.650;2023-04-30T12:58:41;7.13;;;1.70;;
37851;SDS011;23691;52.486;4.650;2023-04-30T13:01:10;8.68;;;1.90;;
37851;SDS011;23691;52.486;4.650;2023-04-30T13:03:36;6.13;;;1.60;;
37851;SDS011;23691;52.486;4.650;2023-04-30T13:06:02;8.60;;;1.95;;
37851;SDS011;23691;52.486;4.650;2023-04-30T13:08:28;7.35;;;1.90;;
37851;SDS011;23691;52.486;4.650;2023-04-30T13:10:54;5.88;;;1.50;;
37851;SDS011;23691;52.486;4.650;2023-04-30T13:13:19;5.97;;;1.52;;
37851;SDS011;23691;52.486;4.650;2023-04-30T13:15:45;4.78;;;1.60;;
37851;SDS011;23691;52.486;4.650;2023-04-30T13:18:10;6.18;;;1.58;;
37851;SDS011;23691;52.486;4.650;2023-04-30T13:20:36;5.88;;;1.65;;
37851;SDS011;23691;52.486;4.650;2023-04-30T13:23:02;7.20;;;1.65;;
37851;SDS011;23691;52.486;4.650;2023-04-30T13:25:28;5.82;;;1.50;;
37851;SDS011;23691;52.486;4.650;2023-04-30T13:27:54;7.88;;;1.60;;
37851;SDS011;23691;52.486;4.650;2023-04-30T13:30:20;5.57;;;1.65;;
37851;SDS011;23691;52.486;4.650;2023-04-30T13:32:45;5.72;;;1.50;;
37851;SDS011;23691;52.486;4.650;2023-04-30T13:35:11;6.85;;;1.85;;
37851;SDS011;23691;52.486;4.650;2023-04-30T13:37:36;6.45;;;1.70;;
37851;SDS011;23691;52.486;4.650;2023-04-30T13:40:03;4.90;;;1.58;;
37851;SDS011;23691;52.486;4.650;2023-04-30T13:42:32;7.20;;;1.70;;
37851;SDS011;23691;52.486;4.650;2023-04-30T13:44:58;4.00;;;1.35;;
37851;SDS011;23691;52.486;4.650;2023-04-30T13:47:24;7.95;;;1.60;;
37851;SDS011;23691;52.486;4.650;2023-04-30T13:49:49;6.28;;;1.60;;
37851;SDS011;23691;52.486;4.650;2023-04-30T13:52:15;4.10;;;1.30;;
37851;SDS011;23691;52.486;4.650;2023-04-30T13:54:40;5.22;;;1.35;;
37851;SDS011;23691;52.486;4.650;2023-04-30T13:57:06;6.97;;;1.55;;
37851;SDS011;23691;52.486;4.650;2023-04-30T13:59:31;3.30;;;1.17;;
37851;SDS011;23691;52.486;4.650;2023-04-30T14:01:57;7.63;;;1.42;;
37851;SDS011;23691;52.486;4.650;2023-04-30T14:04:22;10.05;;;2.47;;
37851;SDS011;23691;52.486;4.650;2023-04-30T14:06:48;4.60;;;1.20;;
37851;SDS011;23691;52.486;4.650;2023-04-30T14:09:14;4.88;;;1.40;;
37851;SDS011;23691;52.486;4.650;2023-04-30T14:11:40;7.03;;;1.73;;
37851;SDS011;23691;52.486;4.650;2023-04-30T14:14:06;6.13;;;1.65;;
37851;SDS011;23691;52.486;4.650;2023-04-30T14:16:32;6.82;;;1.60;;
37851;SDS011;23691;52.486;4.650;2023-04-30T14:18:58;5.65;;;1.80;;
37851;SDS011;23691;52.486;4.650;2023-04-30T14:21:23;6.47;;;1.60;;
37851;SDS011;23691;52.486;4.650;2023-04-30T14:23:48;6.65;;;1.70;;
37851;SDS011;23691;52.486;4.650;2023-04-30T14:26:16;6.78;;;1.80;;
37851;SDS011;23691;52.486;4.650;2023-04-30T14:28:41;5.68;;;1.75;;
37851;SDS011;23691;52.486;4.650;2023-04-30T14:31:07;6.18;;;1.70;;
37851;SDS011;23691;52.486;4.650;2023-04-30T14:33:33;7.57;;;1.60;;
37851;SDS011;23691;52.486;4.650;2023-04-30T14:35:58;8.70;;;1.67;;
37851;SDS011;23691;52.486;4.650;2023-04-30T14:38:26;6.28;;;1.70;;
37851;SDS011;23691;52.486;4.650;2023-04-30T14:40:52;9.75;;;1.80;;
37851;SDS011;23691;52.486;4.650;2023-04-30T14:43:17;5.68;;;1.60;;
37851;SDS011;23691;52.486;4.650;2023-04-30T14:45:43;6.65;;;1.65;;
37851;SDS011;23691;52.486;4.650;2023-04-30T14:48:09;6.18;;;1.65;;
37851;SDS011;23691;52.486;4.650;2023-04-30T14:50:36;7.35;;;1.73;;
37851;SDS011;23691;52.486;4.650;2023-04-30T14:53:02;5.50;;;1.63;;
37851;SDS011;23691;52.486;4.650;2023-04-30T14:55:28;7.80;;;1.95;;
37851;SDS011;23691;52.486;4.650;2023-04-30T14:57:54;6.70;;;1.67;;
37851;SDS011;23691;52.486;4.650;2023-04-30T15:00:20;8.80;;;1.83;;
37851;SDS011;23691;52.486;4.650;2023-04-30T15:02:45;6.82;;;1.50;;
37851;SDS011;23691;52.486;4.650;2023-04-30T15:05:11;6.13;;;1.75;;
37851;SDS011;23691;52.486;4.650;2023-04-30T15:07:37;5.53;;;1.50;;